Time;durP1;ratioP1;P1;durP2;ratioP2;P2;SDS_P1;SDS_P2;PMS_P1;PMS_P2;Temp;Humidity;BMP_temperature;BMP_pressure;BME280_temperature;BME280_humidity;BME280_pressure;Samples;Min_cycle;Max_cycle;Signal;HPM_P1;HPM_P2
2023/04/16 00:01:46;;;;;;;;;;;;;;;9.05;84.49;100342.05;102765;266;96841;-56
2023/04/16 00:04:25;;;;;;;;;;;;;;;9.05;84.48;100340.38;102716;277;97420;-56
2023/04/16 00:07:00;;;;;;;;;;;;;;;9.06;84.53;100339.57;102719;277;120968;-59
2023/04/16 00:09:36;;;;;;;;;;;;;;;8.98;84.73;100336.11;102731;277;105554;-58
2023/04/16 00:12:14;;;;;;;;;;;;;;;8.99;84.69;100341.05;102748;277;114787;-56
2023/04/16 00:14:54;;;;;;;;;;;;;;;9.02;84.72;100343.11;102689;277;96641;-56
2023/04/16 00:17:30;;;;;;;;;;;;;;;8.98;85.04;100341.52;102715;277;97947;-58
2023/04/16 00:20:08;;;;;;;;;;;;;;;8.97;85.10;100341.77;102723;277;120621;-58
2023/04/16 00:22:41;;;;;;;;;;;;;;;8.95;84.91;100341.98;102755;277;105477;-56
2023/04/16 00:25:22;;;;;;;;;;;;;;;8.87;85.25;100341.06;102706;277;114961;-56
2023/04/16 00:27:57;;;;;;;;;;;;;;;8.85;85.31;100339.83;102719;277;97331;-58
2023/04/16 00:30:32;;;;;;;;;;;;;;;8.87;85.22;100341.77;102736;277;97936;-57
2023/04/16 00:33:08;;;;;;;;;;;;;;;8.81;85.42;100343.30;102724;277;120359;-58
2023/04/16 00:35:46;;;;;;;;;;;;;;;8.84;85.40;100343.81;102746;277;105220;-56
2023/04/16 00:38:22;;;;;;;;;;;;;;;8.89;85.29;100342.86;102656;277;114235;-56
2023/04/16 00:40:57;;;;;;;;;;;;;;;8.94;85.24;100345.36;102513;278;96047;-56
2023/04/16 00:43:36;;;;;;;;;;;;;;;8.94;85.40;100347.85;102729;277;97698;-57
2023/04/16 00:46:15;;;;;;;;;;;;;;;8.92;85.58;100350.30;102745;277;121420;-57
2023/04/16 00:48:55;;;;;;;;;;;;;;;8.86;85.53;100348.17;102718;277;105719;-55
2023/04/16 00:51:32;;;;;;;;;;;;;;;8.89;85.67;100347.34;102756;277;114549;-56
2023/04/16 00:54:07;;;;;;;;;;;;;;;8.92;85.74;100344.88;102760;277;97421;-56
2023/04/16 00:56:46;;;;;;;;;;;;;;;8.78;85.99;100351.67;102751;277;98070;-55
2023/04/16 00:59:23;;;;;;;;;;;;;;;8.76;86.30;100353.91;102735;277;119478;-55
2023/04/16 01:01:58;;;;;;;;;;;;;;;8.73;86.18;100349.22;102764;277;104819;-57
2023/04/16 01:04:33;;;;;;;;;;;;;;;8.68;86.10;100348.94;102744;277;115012;-59
2023/04/16 01:07:07;;;;;;;;;;;;;;;8.62;86.16;100353.80;102750;277;94934;-57
2023/04/16 01:09:51;;;;;;;;;;;;;;;8.60;86.25;100354.25;102708;277;97126;-56
2023/04/16 01:12:31;;;;;;;;;;;;;;;8.61;86.20;100358.22;102744;277;120611;-58
2023/04/16 01:15:06;;;;;;;;;;;;;;;8.59;86.53;100357.31;102747;277;105325;-58
2023/04/16 01:17:44;;;;;;;;;;;;;;;8.58;86.77;100354.83;102543;277;114774;-55
2023/04/16 01:20:20;;;;;;;;;;;;;;;8.52;86.74;100353.86;102732;277;97245;-55
2023/04/16 01:23:02;;;;;;;;;;;;;;;8.57;86.74;100350.30;102709;277;97656;-56
2023/04/16 01:25:37;;;;;;;;;;;;;;;8.67;86.77;100350.84;102720;277;121124;-55
2023/04/16 01:28:18;;;;;;;;;;;;;;;8.69;86.86;100352.34;102201;270;639811;-56
2023/04/16 01:30:52;;;;;;;;;;;;;;;8.69;86.81;100348.77;102630;277;114397;-56
2023/04/16 01:33:31;;;;;;;;;;;;;;;8.77;86.80;100352.52;102703;277;97014;-56
2023/04/16 01:36:09;;;;;;;;;;;;;;;8.75;86.70;100353.97;102724;277;97789;-56
2023/04/16 01:38:49;;;;;;;;;;;;;;;8.72;86.98;100354.58;102749;277;119546;-56
2023/04/16 01:41:24;;;;;;;;;;;;;;;8.73;86.85;100353.97;102750;277;105750;-58
2023/04/16 01:44:03;;;;;;;;;;;;;;;8.69;86.84;100353.36;102717;277;113813;-58
2023/04/16 01:46:40;;;;;;;;;;;;;;;8.65;86.80;100351.20;102747;277;93015;-58
2023/04/16 01:49:15;;;;;;;;;;;;;;;8.62;86.71;100351.24;102735;277;97799;-58
2023/04/16 01:51:47;;;;;;;;;;;;;;;8.59;86.67;100350.92;102720;277;119715;-57
2023/04/16 01:54:22;;;;;;;;;;;;;;;8.58;86.66;100351.60;102736;277;105677;-58
2023/04/16 01:57:03;;;;;;;;;;;;;;;8.55;86.67;100355.86;102689;277;113198;-55
2023/04/16 01:59:44;;;;;;;;;;;;;;;8.54;86.86;100356.38;102709;266;94806;-56
2023/04/16 02:02:26;;;;;;;;;;;;;;;8.50;87.05;100352.63;102715;277;97708;-55
2023/04/16 02:05:03;;;;;;;;;;;;;;;8.48;87.26;100355.30;102728;277;120968;-56
2023/04/16 02:07:38;;;;;;;;;;;;;;;8.53;87.41;100356.77;102756;277;105911;-56
2023/04/16 02:10:11;;;;;;;;;;;;;;;8.56;87.33;100358.61;102692;277;114995;-56
2023/04/16 02:12:48;;;;;;;;;;;;;;;8.51;87.66;100363.66;102666;277;96978;-56
2023/04/16 02:15:28;;;;;;;;;;;;;;;8.52;87.38;100368.46;102635;277;97683;-56
2023/04/16 02:18:06;;;;;;;;;;;;;;;8.57;87.38;100368.91;102613;277;119902;-58
2023/04/16 02:20:48;;;;;;;;;;;;;;;8.57;87.38;100369.95;102626;278;104642;-58
2023/04/16 02:23:25;;;;;;;;;;;;;;;8.54;87.49;100369.80;102620;278;114752;-58
2023/04/16 02:26:03;;;;;;;;;;;;;;;8.55;87.44;100375.29;102623;277;94697;-58
2023/04/16 02:28:39;;;;;;;;;;;;;;;8.57;87.32;100373.39;102642;278;97475;-57
2023/04/16 02:31:18;;;;;;;;;;;;;;;8.52;87.36;100376.39;102665;278;121580;-57
2023/04/16 02:34:00;;;;;;;;;;;;;;;8.49;87.24;100373.50;102660;278;105410;-58
2023/04/16 02:36:41;;;;;;;;;;;;;;;8.48;87.32;100376.27;102517;278;113386;-59
2023/04/16 02:39:21;;;;;;;;;;;;;;;8.50;87.30;100377.64;102587;278;97584;-59
2023/04/16 02:42:01;;;;;;;;;;;;;;;8.50;87.42;100379.08;102594;278;97061;-58
2023/04/16 02:44:35;;;;;;;;;;;;;;;8.50;87.58;100381.44;102516;278;121357;-58
2023/04/16 02:47:10;;;;;;;;;;;;;;;8.43;87.69;100387.06;102556;277;105534;-58
2023/04/16 02:49:45;;;;;;;;;;;;;;;8.44;87.69;100388.96;102549;277;114221;-59
2023/04/16 02:52:23;;;;;;;;;;;;;;;8.46;87.66;100391.17;102520;278;96932;-59
2023/04/16 02:55:03;;;;;;;;;;;;;;;8.50;87.61;100392.88;102540;278;97301;-58
2023/04/16 02:57:38;;;;;;;;;;;;;;;8.53;87.65;100398.67;102537;278;121108;-58
2023/04/16 03:00:14;;;;;;;;;;;;;;;8.55;87.55;100399.31;102566;277;106220;-59
2023/04/16 03:02:47;;;;;;;;;;;;;;;8.49;87.60;100407.48;102544;277;112253;-58
2023/04/16 03:05:29;;;;;;;;;;;;;;;8.49;87.47;100410.91;102515;278;94546;-58
2023/04/16 03:08:05;;;;;;;;;;;;;;;8.47;87.30;100411.73;102544;277;97316;-56
2023/04/16 03:10:43;;;;;;;;;;;;;;;8.44;87.43;100410.70;102580;277;121479;-56
2023/04/16 03:13:26;;;;;;;;;;;;;;;8.42;87.36;100413.75;102526;278;105469;-55
2023/04/16 03:16:03;;;;;;;;;;;;;;;8.40;87.58;100414.12;102548;278;114358;-58
2023/04/16 03:18:40;;;;;;;;;;;;;;;8.46;87.59;100416.73;102519;278;96801;-58
2023/04/16 03:21:22;;;;;;;;;;;;;;;8.52;87.48;100417.80;102556;277;97865;-58
2023/04/16 03:23:59;;;;;;;;;;;;;;;8.52;87.41;100414.34;102515;277;120321;-59
2023/04/16 03:26:36;;;;;;;;;;;;;;;8.57;87.69;100419.52;102543;277;104602;-58
2023/04/16 03:29:11;;;;;;;;;;;;;;;8.61;87.52;100419.94;102534;277;113498;-58
2023/04/16 03:31:50;;;;;;;;;;;;;;;8.66;87.42;100419.88;102570;277;94846;-57
2023/04/16 03:34:26;;;;;;;;;;;;;;;8.61;87.40;100418.49;102582;278;97815;-55
2023/04/16 03:37:01;;;;;;;;;;;;;;;8.59;87.46;100418.77;102590;278;120919;-56
2023/04/16 03:39:42;;;;;;;;;;;;;;;8.54;87.58;100414.83;102565;278;103911;-56
2023/04/16 03:42:21;;;;;;;;;;;;;;;8.50;87.37;100416.94;102547;277;113509;-55
2023/04/16 03:45:04;;;;;;;;;;;;;;;8.52;87.31;100421.95;102520;277;96251;-55
2023/04/16 03:47:41;;;;;;;;;;;;;;;8.56;87.32;100423.23;102560;277;97425;-56
2023/04/16 03:50:18;;;;;;;;;;;;;;;8.53;87.46;100426.27;102546;277;120989;-56
2023/04/16 03:52:58;;;;;;;;;;;;;;;8.55;87.43;100426.60;102607;278;104037;-56
2023/04/16 03:55:33;;;;;;;;;;;;;;;8.59;87.26;100429.30;102512;278;113174;-58
2023/04/16 03:58:12;;;;;;;;;;;;;;;8.61;87.29;100431.64;102552;277;93796;-58
2023/04/16 04:00:51;;;;;;;;;;;;;;;8.60;87.43;100434.42;102571;277;98436;-62
2023/04/16 04:03:28;;;;;;;;;;;;;;;8.60;87.25;100431.86;102561;277;120764;-59
2023/04/16 04:06:06;;;;;;;;;;;;;;;8.59;87.26;100434.05;102605;277;105838;-57
2023/04/16 04:08:46;;;;;;;;;;;;;;;8.55;87.32;100431.41;102533;278;114392;-58
2023/04/16 04:11:22;;;;;;;;;;;;;;;8.52;87.32;100435.94;102535;277;95743;-56
2023/04/16 04:13:57;;;;;;;;;;;;;;;8.54;87.22;100437.61;102524;277;96318;-58
2023/04/16 04:16:37;;;;;;;;;;;;;;;8.53;87.23;100440.30;102511;278;120368;-58
2023/04/16 04:19:19;;;;;;;;;;;;;;;8.57;87.43;100439.16;102588;277;106668;-58
2023/04/16 04:21:59;;;;;;;;;;;;;;;8.61;87.27;100440.45;102567;277;114790;-58
2023/04/16 04:24:36;;;;;;;;;;;;;;;8.68;87.24;100442.42;102548;277;95297;-58
2023/04/16 04:27:13;;;;;;;;;;;;;;;8.77;87.07;100447.54;102590;277;96808;-56
2023/04/16 04:29:49;;;;;;;;;;;;;;;8.77;87.04;100446.25;102551;278;119822;-56
2023/04/16 04:32:28;;;;;;;;;;;;;;;8.76;87.09;100445.55;102512;277;103974;-58
2023/04/16 04:35:04;;;;;;;;;;;;;;;8.69;87.07;100450.27;102535;277;114653;-59
2023/04/16 04:37:41;;;;;;;;;;;;;;;8.67;87.03;100451.38;102610;277;94116;-58
2023/04/16 04:40:20;;;;;;;;;;;;;;;8.65;86.98;100457.55;102571;277;97229;-58
2023/04/16 04:42:56;;;;;;;;;;;;;;;8.64;86.95;100458.40;102528;278;119424;-56
2023/04/16 04:45:36;;;;;;;;;;;;;;;8.63;87.12;100461.13;102547;277;105895;-57
2023/04/16 04:48:12;;;;;;;;;;;;;;;8.65;87.20;100460.75;102565;277;113264;-58
2023/04/16 04:50:50;;;;;;;;;;;;;;;8.72;87.08;100463.02;102548;277;96120;-56
2023/04/16 04:53:36;;;;;;;;;;;;;;;8.82;87.06;100465.23;102498;277;98257;-56
2023/04/16 04:56:09;;;;;;;;;;;;;;;8.89;87.02;100468.02;102565;277;120672;-58
2023/04/16 04:58:49;;;;;;;;;;;;;;;8.98;86.86;100469.00;102575;277;105208;-57
2023/04/16 05:01:30;;;;;;;;;;;;;;;9.17;86.78;100469.21;102524;277;114177;-58
2023/04/16 05:04:08;;;;;;;;;;;;;;;9.29;86.56;100471.05;102538;277;93756;-55
2023/04/16 05:06:48;;;;;;;;;;;;;;;9.26;86.45;100473.56;102575;277;97095;-57
2023/04/16 05:09:22;;;;;;;;;;;;;;;9.24;86.21;100481.40;102534;277;120514;-57
2023/04/16 05:11:56;;;;;;;;;;;;;;;9.26;86.18;100482.91;102582;277;105324;-56
2023/04/16 05:14:36;;;;;;;;;;;;;;;9.16;86.24;100482.54;102549;270;114937;-56
2023/04/16 05:17:14;;;;;;;;;;;;;;;9.18;85.98;100485.52;102526;266;97865;-56
2023/04/16 05:19:55;;;;;;;;;;;;;;;9.20;85.80;100487.63;102558;277;97497;-56
2023/04/16 05:22:37;;;;;;;;;;;;;;;9.22;85.91;100485.90;102580;277;120700;-57
2023/04/16 05:25:10;;;;;;;;;;;;;;;9.30;85.86;100485.88;102598;277;103903;-56
2023/04/16 05:27:44;;;;;;;;;;;;;;;9.36;85.90;100485.73;102605;277;115091;-55
2023/04/16 05:30:21;;;;;;;;;;;;;;;9.40;85.72;100491.52;102653;278;94395;-56
2023/04/16 05:33:02;;;;;;;;;;;;;;;9.46;85.77;100490.91;102644;278;96917;-58
2023/04/16 05:35:39;;;;;;;;;;;;;;;9.44;85.60;100491.48;102654;277;120162;-55
2023/04/16 05:38:18;;;;;;;;;;;;;;;9.50;85.39;100495.13;102665;278;106162;-55
2023/04/16 05:40:58;;;;;;;;;;;;;;;9.45;85.45;100500.19;102605;278;114793;-55
2023/04/16 05:43:36;;;;;;;;;;;;;;;9.41;85.34;100500.96;102581;277;96668;-55
2023/04/16 05:46:12;;;;;;;;;;;;;;;9.39;85.17;100504.92;102633;278;98726;-57
2023/04/16 05:48:48;;;;;;;;;;;;;;;9.30;85.16;100503.09;102612;278;119239;-59
2023/04/16 05:51:26;;;;;;;;;;;;;;;9.27;85.15;100502.61;102565;278;106008;-58
2023/04/16 05:53:58;;;;;;;;;;;;;;;9.31;85.15;100507.84;102638;278;114723;-58
2023/04/16 05:56:33;;;;;;;;;;;;;;;9.31;85.03;100507.64;102650;278;96719;-58
2023/04/16 05:59:10;;;;;;;;;;;;;;;9.33;85.16;100512.08;102658;278;96621;-58
2023/04/16 06:01:43;;;;;;;;;;;;;;;9.39;85.14;100515.41;102649;278;120536;-56
2023/04/16 06:04:20;;;;;;;;;;;;;;;9.42;84.98;100517.75;102652;278;104463;-56
2023/04/16 06:07:01;;;;;;;;;;;;;;;9.39;84.92;100518.73;102639;278;114869;-57
2023/04/16 06:09:38;;;;;;;;;;;;;;;9.41;84.89;100524.92;102662;278;93580;-58
2023/04/16 06:12:21;;;;;;;;;;;;;;;9.38;84.89;100526.27;102634;278;97393;-56
2023/04/16 06:15:00;;;;;;;;;;;;;;;9.39;84.72;100528.41;102590;278;119971;-56
2023/04/16 06:17:40;;;;;;;;;;;;;;;9.46;84.73;100526.62;102531;277;105757;-58
2023/04/16 06:20:14;;;;;;;;;;;;;;;9.53;84.57;100527.55;102552;277;114702;-58
2023/04/16 06:22:49;;;;;;;;;;;;;;;9.60;84.54;100530.66;102573;278;97219;-56
2023/04/16 06:25:29;;;;;;;;;;;;;;;9.66;84.58;100532.09;102548;278;98109;-55
2023/04/16 06:28:04;;;;;;;;;;;;;;;9.72;84.31;100535.87;102568;266;119836;-57
2023/04/16 06:30:46;;;;;;;;;;;;;;;9.76;84.11;100535.02;102534;278;106001;-55
2023/04/16 06:33:26;;;;;;;;;;;;;;;9.85;83.94;100535.09;102533;278;112977;-56
2023/04/16 06:36:02;;;;;;;;;;;;;;;9.95;83.86;100538.47;102592;278;93400;-58
2023/04/16 06:38:39;;;;;;;;;;;;;;;9.98;83.65;100539.38;102583;278;96113;-58
2023/04/16 06:41:15;;;;;;;;;;;;;;;9.99;83.64;100539.83;102562;278;120725;-56
2023/04/16 06:43:55;;;;;;;;;;;;;;;10.05;83.15;100541.41;102534;277;106376;-56
2023/04/16 06:46:30;;;;;;;;;;;;;;;10.03;83.14;100543.98;102542;278;114921;-58
2023/04/16 06:49:06;;;;;;;;;;;;;;;9.99;83.02;100543.25;102541;277;95783;-58
2023/04/16 06:51:43;;;;;;;;;;;;;;;9.93;83.02;100544.48;102548;278;98186;-58
2023/04/16 06:54:18;;;;;;;;;;;;;;;9.89;82.91;100543.39;102534;278;120640;-57
2023/04/16 06:56:56;;;;;;;;;;;;;;;9.85;82.82;100545.84;102558;278;105517;-56
2023/04/16 06:59:29;;;;;;;;;;;;;;;9.75;83.01;100545.81;102488;278;114772;-55
2023/04/16 07:02:10;;;;;;;;;;;;;;;9.84;83.11;100546.79;102508;278;96286;-58
2023/04/16 07:04:46;;;;;;;;;;;;;;;9.98;83.06;100549.85;102582;278;97922;-57
2023/04/16 07:07:21;;;;;;;;;;;;;;;10.09;82.80;100546.70;102583;278;120930;-55
2023/04/16 07:10:00;;;;;;;;;;;;;;;10.08;82.82;100547.90;102536;278;105705;-56
2023/04/16 07:12:37;;;;;;;;;;;;;;;10.15;82.55;100548.02;102527;278;114259;-55
2023/04/16 07:15:11;;;;;;;;;;;;;;;10.18;82.30;100553.98;102540;277;94356;-56
2023/04/16 07:17:43;;;;;;;;;;;;;;;10.21;82.39;100554.23;102581;278;96657;-55
2023/04/16 07:20:17;;;;;;;;;;;;;;;10.20;82.15;100553.60;102553;277;121212;-55
2023/04/16 07:22:53;;;;;;;;;;;;;;;10.10;81.93;100556.94;102534;278;105711;-55
2023/04/16 07:25:33;;;;;;;;;;;;;;;9.98;82.00;100562.63;102517;278;115241;-57
2023/04/16 07:28:07;;;;;;;;;;;;;;;10.08;81.86;100564.10;102597;277;97646;-56
2023/04/16 07:30:44;;;;;;;;;;;;;;;10.13;81.95;100570.65;102543;277;96272;-56
2023/04/16 07:33:20;;;;;;;;;;;;;;;10.09;81.79;100574.27;102522;277;119333;-56
2023/04/16 07:35:59;;;;;;;;;;;;;;;10.05;81.96;100577.75;102547;277;104493;-55
2023/04/16 07:38:34;;;;;;;;;;;;;;;10.23;81.87;100578.61;102557;277;115020;-56
2023/04/16 07:41:11;;;;;;;;;;;;;;;10.32;81.75;100585.23;102551;277;94290;-56
2023/04/16 07:43:47;;;;;;;;;;;;;;;10.37;81.48;100592.39;102572;277;96805;-56
2023/04/16 07:46:22;;;;;;;;;;;;;;;10.34;81.47;100594.84;102530;277;120906;-56
2023/04/16 07:49:02;;;;;;;;;;;;;;;10.23;81.30;100596.14;102589;277;105096;-56
2023/04/16 07:51:40;;;;;;;;;;;;;;;10.20;81.06;100594.26;102558;277;113378;-57
2023/04/16 07:54:16;;;;;;;;;;;;;;;10.21;81.06;100591.05;102528;278;93850;-58
2023/04/16 07:56:55;;;;;;;;;;;;;;;10.25;81.06;100594.86;102564;277;97347;-55
2023/04/16 07:59:31;;;;;;;;;;;;;;;10.24;80.74;100600.73;102521;277;121997;-56
2023/04/16 08:02:09;;;;;;;;;;;;;;;10.13;80.62;100605.67;102604;277;105882;-57
2023/04/16 08:04:49;;;;;;;;;;;;;;;10.12;80.59;100602.73;102490;277;115229;-55
2023/04/16 08:07:31;;;;;;;;;;;;;;;10.17;80.66;100606.63;102555;277;96852;-58
2023/04/16 08:10:08;;;;;;;;;;;;;;;10.17;80.62;100604.30;102545;277;97388;-58
2023/04/16 08:12:47;;;;;;;;;;;;;;;10.24;80.77;100610.35;102523;277;121083;-57
2023/04/16 08:15:25;;;;;;;;;;;;;;;10.31;80.57;100620.05;102552;277;105106;-57
2023/04/16 08:17:59;;;;;;;;;;;;;;;10.30;80.58;100621.01;102523;277;114578;-55
2023/04/16 08:20:35;;;;;;;;;;;;;;;10.27;80.43;100623.42;102524;277;95218;-57
2023/04/16 08:23:14;;;;;;;;;;;;;;;10.35;80.10;100626.25;102558;277;97662;-58
2023/04/16 08:25:51;;;;;;;;;;;;;;;10.46;80.25;100623.36;102541;277;120076;-58
2023/04/16 08:28:31;;;;;;;;;;;;;;;10.46;80.10;100627.65;102509;277;106049;-58
2023/04/16 08:31:08;;;;;;;;;;;;;;;10.49;79.78;100628.66;102522;278;115144;-56
2023/04/16 08:33:42;;;;;;;;;;;;;;;10.44;79.68;100633.09;102499;277;96446;-56
2023/04/16 08:36:19;;;;;;;;;;;;;;;10.51;79.41;100630.96;102576;277;96401;-59
2023/04/16 08:39:00;;;;;;;;;;;;;;;10.55;79.48;100635.69;102519;277;120779;-58
2023/04/16 08:41:41;;;;;;;;;;;;;;;10.58;79.48;100636.61;102541;277;105851;-59
2023/04/16 08:44:22;;;;;;;;;;;;;;;10.58;79.41;100635.90;102525;277;114034;-58
2023/04/16 08:46:58;;;;;;;;;;;;;;;10.64;79.24;100638.20;102557;277;94784;-55
2023/04/16 08:49:34;;;;;;;;;;;;;;;10.76;79.22;100638.39;102539;277;98002;-55
2023/04/16 08:52:10;;;;;;;;;;;;;;;10.80;79.15;100642.81;102584;277;119443;-58
2023/04/16 08:54:48;;;;;;;;;;;;;;;10.83;78.89;100642.44;102559;277;106030;-58
2023/04/16 08:57:27;;;;;;;;;;;;;;;10.87;78.85;100644.25;102537;277;114289;-56
2023/04/16 09:00:08;;;;;;;;;;;;;;;10.93;78.86;100645.84;102535;278;94230;-55
2023/04/16 09:02:48;;;;;;;;;;;;;;;11.00;78.49;100646.98;102595;277;97455;-56
2023/04/16 09:05:25;;;;;;;;;;;;;;;11.04;78.39;100644.33;102533;277;119990;-56
2023/04/16 09:07:58;;;;;;;;;;;;;;;10.99;78.54;100646.89;102522;277;104670;-57
2023/04/16 09:10:41;;;;;;;;;;;;;;;11.10;78.49;100650.98;102537;277;113914;-58
2023/04/16 09:13:19;;;;;;;;;;;;;;;11.18;78.43;100648.11;102528;277;92361;-58
2023/04/16 09:15:54;;;;;;;;;;;;;;;11.21;78.33;100652.85;102603;277;98139;-58
2023/04/16 09:18:31;;;;;;;;;;;;;;;11.29;78.35;100651.38;102500;279;121058;-59
2023/04/16 09:21:06;;;;;;;;;;;;;;;11.37;78.31;100653.97;102546;277;104651;-57
2023/04/16 09:23:40;;;;;;;;;;;;;;;11.48;78.15;100646.09;102624;277;114616;-57
2023/04/16 09:26:15;;;;;;;;;;;;;;;11.52;77.67;100652.44;102513;278;93767;-59
2023/04/16 09:28:51;;;;;;;;;;;;;;;11.49;77.67;100651.19;102096;277;632806;-58
2023/04/16 09:31:32;;;;;;;;;;;;;;;11.55;77.51;100650.44;102494;278;120805;-59
2023/04/16 09:34:09;;;;;;;;;;;;;;;11.62;77.54;100654.48;102625;278;103677;-58
2023/04/16 09:36:48;;;;;;;;;;;;;;;11.71;77.51;100657.98;102653;278;113234;-57
2023/04/16 09:39:26;;;;;;;;;;;;;;;11.85;77.32;100659.52;102580;278;97432;-57
2023/04/16 09:42:01;;;;;;;;;;;;;;;11.95;77.26;100663.29;102696;278;97804;-56
2023/04/16 09:44:40;;;;;;;;;;;;;;;12.00;77.25;100667.26;102669;277;121304;-57
2023/04/16 09:47:17;;;;;;;;;;;;;;;12.06;77.17;100672.58;102661;278;105345;-57
2023/04/16 09:49:54;;;;;;;;;;;;;;;12.07;76.87;100672.76;102610;278;114441;-57
2023/04/16 09:52:29;;;;;;;;;;;;;;;12.14;76.71;100674.42;102568;278;94749;-58
2023/04/16 09:55:04;;;;;;;;;;;;;;;12.23;76.56;100671.84;102685;278;96653;-59
2023/04/16 09:57:47;;;;;;;;;;;;;;;12.29;76.64;100673.77;102634;278;119860;-57
2023/04/16 10:00:26;;;;;;;;;;;;;;;12.22;76.55;100669.90;102627;278;105743;-57
2023/04/16 10:03:06;;;;;;;;;;;;;;;12.22;76.60;100673.23;102647;278;112024;-57
2023/04/16 10:05:40;;;;;;;;;;;;;;;12.29;76.39;100675.77;102662;278;95010;-58
2023/04/16 10:08:17;;;;;;;;;;;;;;;12.29;76.42;100678.44;102621;278;97575;-59
2023/04/16 10:10:55;;;;;;;;;;;;;;;12.36;76.27;100680.13;102514;278;122581;-58
2023/04/16 10:13:32;;;;;;;;;;;;;;;12.45;76.18;100683.64;102626;278;105867;-58
2023/04/16 10:16:08;;;;;;;;;;;;;;;12.49;75.74;100681.53;102618;278;114317;-57
2023/04/16 10:18:45;;;;;;;;;;;;;;;12.53;75.61;100681.88;102636;278;93858;-56
2023/04/16 10:21:22;;;;;;;;;;;;;;;12.48;75.36;100682.73;102673;278;96151;-57
2023/04/16 10:23:56;;;;;;;;;;;;;;;12.46;75.26;100681.69;102642;277;120791;-56
2023/04/16 10:26:32;;;;;;;;;;;;;;;12.51;75.01;100686.14;102699;278;106138;-56
2023/04/16 10:29:08;;;;;;;;;;;;;;;12.57;74.87;100689.70;102636;278;115602;-58
2023/04/16 10:31:42;;;;;;;;;;;;;;;12.60;75.01;100695.15;102657;278;92718;-59
2023/04/16 10:34:19;;;;;;;;;;;;;;;12.69;74.75;100697.02;102660;278;98094;-59
2023/04/16 10:36:58;;;;;;;;;;;;;;;12.78;74.58;100696.42;102666;278;120348;-57
2023/04/16 10:39:36;;;;;;;;;;;;;;;12.84;73.89;100695.80;102654;278;105260;-58
2023/04/16 10:42:14;;;;;;;;;;;;;;;12.88;73.64;100701.77;102687;278;114203;-56
2023/04/16 10:44:48;;;;;;;;;;;;;;;12.90;74.02;100702.35;102614;278;94856;-56
2023/04/16 10:47:31;;;;;;;;;;;;;;;13.05;73.88;100707.91;102690;278;97107;-59
2023/04/16 10:50:19;;;;;;;;;;;;;;;13.15;73.59;100709.55;102584;278;121522;-58
2023/04/16 10:53:07;;;;;;;;;;;;;;;13.09;73.04;100711.59;102629;278;105645;-58
2023/04/16 10:55:56;;;;;;;;;;;;;;;13.20;72.90;100709.04;102606;278;114071;-60
2023/04/16 10:58:38;;;;;;;;;;;;;;;13.37;72.70;100707.81;102629;278;96769;-58
2023/04/16 11:01:19;;;;;;;;;;;;;;;13.47;72.68;100708.52;102659;278;97259;-58
2023/04/16 11:04:01;;;;;;;;;;;;;;;13.60;72.33;100709.11;102562;278;121822;-60
2023/04/16 11:06:40;;;;;;;;;;;;;;;13.75;72.29;100709.00;102588;278;105277;-58
2023/04/16 11:09:32;;;;;;;;;;;;;;;13.87;71.23;100708.77;102576;278;111582;-58
2023/04/16 11:12:14;;;;;;;;;;;;;;;14.08;71.32;100706.63;102527;278;94543;-57
2023/04/16 11:14:52;;;;;;;;;;;;;;;14.34;70.58;100705.33;102544;277;97221;-56
2023/04/16 11:17:28;;;;;;;;;;;;;;;14.41;70.24;100706.02;102570;277;122058;-56
2023/04/16 11:20:04;;;;;;;;;;;;;;;14.72;70.67;100711.70;102553;277;105321;-57
2023/04/16 11:22:38;;;;;;;;;;;;;;;14.87;70.37;100713.68;102578;277;114603;-60
2023/04/16 11:25:12;;;;;;;;;;;;;;;14.92;70.04;100713.34;102504;277;95224;-59
2023/04/16 11:27:47;;;;;;;;;;;;;;;15.09;69.97;100713.90;102533;278;98652;-58
2023/04/16 11:30:32;;;;;;;;;;;;;;;15.05;68.70;100715.30;102541;277;120374;-58
2023/04/16 11:33:08;;;;;;;;;;;;;;;14.93;68.39;100716.35;102549;277;105987;-59
2023/04/16 11:35:42;;;;;;;;;;;;;;;14.94;68.36;100716.10;102534;278;114964;-56
2023/04/16 11:38:15;;;;;;;;;;;;;;;14.90;68.29;100718.06;102530;277;92295;-56
2023/04/16 11:40:50;;;;;;;;;;;;;;;14.90;68.46;100721.41;102523;277;97494;-56
2023/04/16 11:43:27;;;;;;;;;;;;;;;14.83;68.17;100720.83;102532;278;120427;-57
2023/04/16 11:46:06;;;;;;;;;;;;;;;14.90;68.07;100716.06;102534;278;105161;-56
2023/04/16 11:49:06;;;;;;;;;;;;;;;14.87;68.40;100718.32;102516;277;114190;-63
2023/04/16 11:51:46;;;;;;;;;;;;;;;14.65;67.74;100717.34;102529;278;93436;-59
2023/04/16 11:54:33;;;;;;;;;;;;;;;14.58;67.64;100722.95;102536;277;97890;-58
2023/04/16 11:57:06;;;;;;;;;;;;;;;14.50;67.52;100716.69;102564;278;118438;-56
2023/04/16 11:59:47;;;;;;;;;;;;;;;14.54;67.55;100716.95;102584;277;104948;-54
2023/04/16 12:02:42;;;;;;;;;;;;;;;14.53;67.55;100717.20;102573;278;113376;-55
2023/04/16 12:05:30;;;;;;;;;;;;;;;14.45;67.43;100715.46;102518;277;93924;-55
2023/04/16 12:08:05;;;;;;;;;;;;;;;14.28;67.66;100715.00;102549;277;95943;-58
2023/04/16 12:10:56;;;;;;;;;;;;;;;14.30;67.52;100712.38;102550;277;121063;-56
2023/04/16 12:13:29;;;;;;;;;;;;;;;14.37;67.26;100717.25;102551;278;106073;-56
2023/04/16 12:16:16;;;;;;;;;;;;;;;14.32;67.54;100716.89;102554;278;113243;-59
2023/04/16 12:19:09;;;;;;;;;;;;;;;14.35;66.99;100713.95;102575;277;93868;-58
2023/04/16 12:21:45;;;;;;;;;;;;;;;14.30;67.40;100710.58;102533;277;97364;-59
2023/04/16 12:24:21;;;;;;;;;;;;;;;14.45;67.05;100706.11;102539;278;120012;-59
2023/04/16 12:27:01;;;;;;;;;;;;;;;14.38;67.08;100704.23;102586;277;103567;-56
2023/04/16 12:29:38;;;;;;;;;;;;;;;14.38;67.15;100701.38;102524;277;113658;-57
2023/04/16 12:32:34;;;;;;;;;;;;;;;14.35;67.16;100702.20;102541;277;94867;-58
2023/04/16 12:35:06;;;;;;;;;;;;;;;14.39;67.12;100700.75;102612;277;97570;-58
2023/04/16 12:37:40;;;;;;;;;;;;;;;14.53;67.10;100702.23;102571;277;120197;-56
2023/04/16 12:40:13;;;;;;;;;;;;;;;14.56;67.25;100700.69;102588;277;106264;-56
2023/04/16 12:42:51;;;;;;;;;;;;;;;14.61;67.28;100701.31;102606;277;114214;-58
2023/04/16 12:45:31;;;;;;;;;;;;;;;14.69;67.24;100701.41;102577;277;94596;-57
2023/04/16 12:48:05;;;;;;;;;;;;;;;14.79;67.10;100696.89;102521;279;97652;-57
2023/04/16 12:50:43;;;;;;;;;;;;;;;14.77;66.96;100696.14;102587;277;121201;-59
2023/04/16 12:53:17;;;;;;;;;;;;;;;14.80;66.86;100699.27;102563;277;104587;-60
2023/04/16 12:55:53;;;;;;;;;;;;;;;14.69;66.81;100694.52;102565;277;114519;-58
2023/04/16 12:58:33;;;;;;;;;;;;;;;14.62;67.04;100691.75;102490;277;94103;-57
2023/04/16 13:01:10;;;;;;;;;;;;;;;14.76;66.90;100694.54;102602;277;97211;-60
2023/04/16 13:03:51;;;;;;;;;;;;;;;14.92;66.66;100689.94;102534;277;120138;-60
2023/04/16 13:06:31;;;;;;;;;;;;;;;14.94;66.38;100693.03;102584;278;104312;-57
2023/04/16 13:09:08;;;;;;;;;;;;;;;14.94;66.25;100690.73;102583;277;114902;-57
2023/04/16 13:11:47;;;;;;;;;;;;;;;15.08;66.15;100691.60;102556;277;92690;-60
2023/04/16 13:14:28;;;;;;;;;;;;;;;15.12;66.00;100690.50;102541;277;97579;-61
2023/04/16 13:17:02;;;;;;;;;;;;;;;15.08;65.74;100689.04;102545;277;120659;-59
2023/04/16 13:19:40;;;;;;;;;;;;;;;14.97;65.89;100691.31;102511;278;103974;-60
2023/04/16 13:22:21;;;;;;;;;;;;;;;15.01;66.10;100687.79;102589;277;112949;-56
2023/04/16 13:24:57;;;;;;;;;;;;;;;15.16;66.06;100689.65;102560;277;94235;-57
2023/04/16 13:27:37;;;;;;;;;;;;;;;15.15;65.92;100685.64;102594;277;97497;-59
2023/04/16 13:30:14;;;;;;;;;;;;;;;15.21;65.53;100683.41;102661;278;119646;-60